Time;durP1;ratioP1;P1;durP2;ratioP2;P2;SDS_P1;SDS_P2;PMS_P1;PMS_P2;Temp;Humidity;BMP_temperature;BMP_pressure;BME280_temperature;BME280_humidity;BME280_pressure;Samples;Min_cycle;Max_cycle;Signal;HPM_P1;HPM_P2
2022/07/22 00:04:14;;;;;;;8.27;5.88;;;23.20;99.90;;;;;;13088977;22;20164;-89
2022/07/22 00:09:16;;;;;;;7.32;6.00;;;23.10;99.90;;;;;;13062765;22;20175;-89
2022/07/22 00:14:19;;;;;;;8.95;5.60;;;23.00;99.90;;;;;;13115921;22;20229;-89
2022/07/22 00:19:24;;;;;;;6.22;5.63;;;22.90;99.90;;;;;;13116017;22;20164;-89
2022/07/22 00:24:26;;;;;;;7.38;6.68;;;22.70;99.90;;;;;;13116043;22;20472;-89
2022/07/22 00:29:29;;;;;;;13.07;6.38;;;22.50;99.90;;;;;;13088556;22;20168;-89
2022/07/22 00:34:32;;;;;;;9.57;6.28;;;22.50;99.90;;;;;;13087762;22;20597;-90
2022/07/22 00:39:34;;;;;;;12.30;7.15;;;22.60;99.90;;;;;;13087244;22;20222;-90
2022/07/22 00:44:38;;;;;;;7.88;7.07;;;22.50;99.90;;;;;;13061529;22;20233;-90
2022/07/22 00:49:42;;;;;;;7.25;6.55;;;22.50;99.90;;;;;;13087329;22;20173;-90
2022/07/22 00:54:45;;;;;;;8.10;7.13;;;22.60;99.90;;;;;;13115629;22;20523;-89
2022/07/22 00:59:47;;;;;;;7.82;7.03;;;22.60;99.90;;;;;;13094997;22;20165;-90
2022/07/22 01:04:50;;;;;;;8.45;7.68;;;22.50;99.90;;;;;;13061785;22;20238;-89
2022/07/22 01:09:52;;;;;;;8.10;7.38;;;22.50;99.90;;;;;;13115721;22;20503;-89
2022/07/22 01:14:55;;;;;;;7.32;6.70;;;22.70;99.90;;;;;;13115675;22;20229;-89
2022/07/22 01:20:05;;;;;;;7.75;7.05;;;23.00;99.90;;;;;;13061263;22;20172;-89
2022/07/22 01:25:08;;;;;;;8.50;7.70;;;23.10;99.90;;;;;;13114568;22;20173;-90
2022/07/22 01:30:11;;;;;;;8.38;7.63;;;23.10;99.90;;;;;;13089569;22;20176;-90
2022/07/22 01:35:14;;;;;;;7.30;6.70;;;23.20;99.90;;;;;;13065904;22;20532;-90
2022/07/22 01:40:17;;;;;;;7.45;6.80;;;23.20;99.90;;;;;;13115822;22;20197;-90
2022/07/22 01:45:19;;;;;;;8.18;7.45;;;23.20;99.90;;;;;;13091488;22;20551;-89
2022/07/22 01:50:22;;;;;;;9.25;8.10;;;23.30;99.90;;;;;;13089671;22;20176;-89
2022/07/22 01:55:25;;;;;;;7.57;6.90;;;23.20;99.90;;;;;;13090545;22;20192;-89
2022/07/22 02:00:28;;;;;;;8.52;7.72;;;23.00;99.90;;;;;;13089899;22;20177;-89
2022/07/22 02:05:30;;;;;;;8.65;6.80;;;23.20;99.90;;;;;;13089642;22;20642;-89
2022/07/22 02:10:39;;;;;;;8.02;7.15;;;22.90;99.90;;;;;;13089922;22;20514;-90
2022/07/22 02:15:42;;;;;;;7.82;7.13;;;23.00;99.90;;;;;;13089560;22;20172;-89
2022/07/22 02:20:45;;;;;;;7.88;7.18;;;23.00;99.90;;;;;;13091205;22;20172;-89
2022/07/22 02:25:49;;;;;;;7.95;7.25;;;23.10;99.90;;;;;;13118935;22;20160;-89
2022/07/22 02:30:52;;;;;;;7.45;6.80;;;23.10;99.90;;;;;;13090571;22;20176;-89
2022/07/22 02:35:55;;;;;;;7.90;7.20;;;23.10;99.90;;;;;;13091915;22;20161;-89
2022/07/22 02:40:59;;;;;;;7.28;6.68;;;23.10;99.90;;;;;;13117180;22;20500;-89
2022/07/22 02:46:02;;;;;;;8.32;7.53;;;23.10;99.90;;;;;;13088930;22;20210;-90
2022/07/22 02:51:06;;;;;;;7.80;7.10;;;23.20;99.90;;;;;;13088588;22;20241;-90
2022/07/22 02:56:09;;;;;;;7.10;6.28;;;23.20;99.90;;;;;;13088969;22;20511;-89
2022/07/22 03:01:12;;;;;;;7.60;6.90;;;23.20;99.90;;;;;;13088909;22;20176;-90
2022/07/22 03:06:23;;;;;;;7.70;7.00;;;22.70;99.90;;;;;;13089471;22;20517;-90
2022/07/22 03:11:34;;;;;;;7.45;6.70;;;22.90;99.90;;;;;;13064773;22;20227;-89
2022/07/22 03:16:38;;;;;;;7.85;7.15;;;22.90;99.90;;;;;;13088375;22;20202;-89
2022/07/22 03:21:40;;;;;;;8.00;7.20;;;23.00;99.90;;;;;;13088345;22;20180;-89
2022/07/22 03:26:43;;;;;;;7.75;7.05;;;23.10;99.90;;;;;;13063253;22;20230;-89
2022/07/22 03:31:45;;;;;;;7.07;6.45;;;23.10;99.90;;;;;;13088172;22;20192;-89
2022/07/22 03:36:49;;;;;;;7.53;6.82;;;23.20;99.90;;;;;;13062842;22;20169;-89
2022/07/22 03:41:52;;;;;;;7.53;6.88;;;23.20;99.90;;;;;;13087998;22;20235;-91
2022/07/22 03:46:54;;;;;;;6.97;6.38;;;23.20;99.90;;;;;;13062440;22;20226;-90
2022/07/22 03:51:58;;;;;;;7.47;6.75;;;23.00;99.90;;;;;;13087489;22;20196;-91
2022/07/22 03:57:01;;;;;;;8.20;7.47;;;23.10;99.90;;;;;;13062482;22;20180;-91
2022/07/22 04:02:03;;;;;;;7.70;7.00;;;23.00;99.90;;;;;;13087735;22;20244;-90
2022/07/22 04:07:06;;;;;;;6.70;6.10;;;23.10;99.90;;;;;;13087559;22;20172;-91
2022/07/22 04:12:11;;;;;;;7.40;6.70;;;23.10;99.90;;;;;;13062185;22;20196;-90
2022/07/22 04:17:34;;;;;;;7.30;6.60;;;23.00;99.90;;;;;;13115581;22;20173;-90
2022/07/22 04:22:36;;;;;;;7.53;6.55;;;23.10;99.90;;;;;;13086746;22;20176;-90
2022/07/22 04:27:39;;;;;;;6.97;6.38;;;23.10;99.90;;;;;;13088597;22;20168;-90
2022/07/22 04:32:42;;;;;;;7.32;6.72;;;23.20;99.90;;;;;;13087068;22;20197;-91
2022/07/22 04:37:45;;;;;;;7.55;6.82;;;23.20;99.90;;;;;;13086643;22;20581;-91
2022/07/22 04:42:47;;;;;;;7.47;6.78;;;23.30;99.90;;;;;;13061968;22;20229;-90
2022/07/22 04:47:50;;;;;;;7.70;7.00;;;23.20;99.90;;;;;;13087009;22;20173;-90
2022/07/22 04:52:52;;;;;;;7.22;6.55;;;23.20;99.90;;;;;;13086763;22;20200;-90
2022/07/22 04:57:55;;;;;;;7.82;7.13;;;23.20;99.90;;;;;;13086921;22;20237;-91
2022/07/22 05:02:58;;;;;;;7.43;6.72;;;23.30;99.90;;;;;;13062218;22;20180;-90
2022/07/22 05:08:04;;;;;;;7.88;7.07;;;23.30;99.90;;;;;;13090875;22;20202;-90
2022/07/22 05:13:07;;;;;;;7.88;7.07;;;23.30;99.90;;;;;;13090806;22;20192;-90
2022/07/22 05:18:13;;;;;;;6.60;6.00;;;23.30;99.90;;;;;;13066558;22;20176;-91
2022/07/22 05:23:16;;;;;;;7.63;6.88;;;23.30;99.90;;;;;;13090930;22;20514;-90
2022/07/22 05:28:19;;;;;;;7.63;6.93;;;23.30;99.90;;;;;;13090563;22;20180;-90
2022/07/22 05:33:23;;;;;;;6.97;6.38;;;23.20;99.90;;;;;;13065138;22;20253;-90
2022/07/22 05:38:37;;;;;;;7.28;6.57;;;23.30;99.90;;;;;;13089821;22;20538;-90
2022/07/22 05:43:41;;;;;;;7.43;6.72;;;23.30;99.90;;;;;;13065361;22;20184;-89
2022/07/22 05:48:44;;;;;;;12.52;9.43;;;23.20;99.90;;;;;;13090739;22;20176;-90
2022/07/22 05:53:47;;;;;;;9.00;8.13;;;23.10;99.90;;;;;;13090556;22;20192;-90
2022/07/22 05:58:50;;;;;;;7.30;6.70;;;23.10;99.90;;;;;;13089841;22;20172;-90
2022/07/22 06:03:52;;;;;;;7.45;6.75;;;23.30;99.90;;;;;;13090409;22;20203;-90
2022/07/22 06:08:55;;;;;;;7.63;6.93;;;23.30;99.90;;;;;;13089977;22;20227;-90
2022/07/22 06:13:58;;;;;;;8.38;7.55;;;23.20;99.90;;;;;;13088949;22;20196;-90
2022/07/22 06:19:02;;;;;;;8.40;7.60;;;23.20;99.90;;;;;;13091107;22;20172;-90
2022/07/22 06:24:05;;;;;;;12.98;10.00;;;23.20;99.90;;;;;;13063781;22;20176;-90
2022/07/22 06:29:07;;;;;;;8.02;7.32;;;23.30;99.90;;;;;;13090936;22;20481;-89
2022/07/22 06:34:11;;;;;;;8.93;8.02;;;23.20;99.90;;;;;;13118257;22;20619;-90
2022/07/22 06:39:29;;;;;;;12.38;10.82;;;23.30;99.90;;;;;;13067758;22;20200;-90
2022/07/22 06:45:02;;;;;;;8.23;7.50;;;23.30;99.90;;;;;;13114125;22;20207;-90
2022/07/22 06:50:30;;;;;;;13.25;11.13;;;23.30;99.90;;;;;;13116058;22;20180;-90
2022/07/22 06:55:35;;;;;;;10.00;9.05;;;23.30;99.90;;;;;;13088982;22;20253;-90
2022/07/22 07:00:42;;;;;;;12.75;11.05;;;23.40;99.90;;;;;;13088771;22;20220;-91
2022/07/22 07:06:11;;;;;;;14.95;10.02;;;23.60;99.90;;;;;;13088993;22;20172;-90
2022/07/22 07:11:43;;;;;;;9.73;8.85;;;23.60;99.90;;;;;;13085000;22;20177;-90
2022/07/22 07:17:00;;;;;;;13.75;11.57;;;23.70;99.90;;;;;;13088576;22;20503;-91
2022/07/22 07:22:03;;;;;;;18.85;12.82;;;23.80;99.90;;;;;;13063107;22;20169;-89
2022/07/22 07:27:08;;;;;;;9.45;8.55;;;23.90;99.90;;;;;;13087990;22;20173;-90
2022/07/22 07:32:12;;;;;;;17.42;14.13;;;23.90;99.90;;;;;;13088284;22;20246;-90
2022/07/22 07:37:15;;;;;;;13.05;11.07;;;24.10;99.90;;;;;;13116556;22;20522;-90
2022/07/22 07:42:18;;;;;;;11.60;9.43;;;24.10;99.90;;;;;;13088286;22;20516;-90
2022/07/22 07:47:20;;;;;;;13.52;11.50;;;24.20;99.90;;;;;;13088720;22;20631;-90
2022/07/22 07:52:25;;;;;;;13.07;11.77;;;24.30;99.90;;;;;;13087944;22;20184;-90
2022/07/22 07:57:28;;;;;;;10.10;9.10;;;24.40;99.90;;;;;;13087767;22;20177;-88
2022/07/22 08:02:31;;;;;;;12.88;11.52;;;24.40;99.90;;;;;;13064289;22;20172;-90
2022/07/22 08:07:34;;;;;;;9.82;8.93;;;24.60;99.90;;;;;;13087353;22;20180;-89
2022/07/22 08:12:37;;;;;;;12.88;9.75;;;24.60;99.90;;;;;;13088327;22;20239;-90
2022/07/22 08:17:52;;;;;;;12.57;10.02;;;24.60;99.90;;;;;;13088268;22;20202;-91
2022/07/22 08:22:57;;;;;;;17.52;12.45;;;24.60;99.90;;;;;;13088124;22;20176;-90
2022/07/22 08:28:03;;;;;;;13.63;11.63;;;24.80;99.90;;;;;;13062753;22;20523;-90
2022/07/22 08:33:06;;;;;;;13.50;11.93;;;24.80;99.90;;;;;;13086798;22;20200;-90
2022/07/22 08:38:11;;;;;;;14.88;11.40;;;24.90;99.90;;;;;;13090120;22;20538;-90
2022/07/22 08:43:14;;;;;;;12.88;10.68;;;25.20;99.90;;;;;;13091805;22;20176;-90
2022/07/22 08:48:17;;;;;;;15.98;11.18;;;25.20;99.90;;;;;;13091281;22;20176;-91
2022/07/22 08:53:40;;;;;;;11.68;10.50;;;25.30;99.90;;;;;;13091542;22;20588;-89
2022/07/22 08:58:45;;;;;;;18.05;12.43;;;25.50;99.90;;;;;;13090832;22;20172;-89
2022/07/22 09:03:55;;;;;;;12.35;11.05;;;25.60;99.90;;;;;;13091254;22;20233;-90
2022/07/22 09:09:06;;;;;;;10.75;9.75;;;25.70;99.90;;;;;;13066903;22;20180;-90
2022/07/22 09:14:53;;;;;;;14.00;12.52;;;25.80;99.90;;;;;;13141058;22;20515;-90
2022/07/22 09:20:19;;;;;;;14.32;12.82;;;26.20;99.90;;;;;;13068135;22;20169;-90
2022/07/22 09:25:46;;;;;;;13.30;11.90;;;26.20;99.90;;;;;;13141286;22;20168;-90
2022/07/22 09:30:58;;;;;;;11.18;10.15;;;26.70;99.90;;;;;;13140559;22;20704;-89
2022/07/22 09:36:05;;;;;;;11.98;9.63;;;26.80;99.90;;;;;;13066460;22;20585;-90
2022/07/22 09:41:11;;;;;;;12.35;10.23;;;27.10;99.90;;;;;;13065477;22;20250;-91
2022/07/22 09:46:13;;;;;;;10.25;9.35;;;27.00;99.90;;;;;;13094361;22;20552;-90
2022/07/22 09:51:40;;;;;;;10.98;9.93;;;27.00;99.90;;;;;;13102898;22;20180;-91
2022/07/22 09:57:05;;;;;;;15.20;11.57;;;26.40;99.90;;;;;;13117608;22;20196;-89
2022/07/22 10:02:10;;;;;;;12.20;10.77;;;26.40;99.90;;;;;;13064627;22;20222;-90
2022/07/22 10:07:13;;;;;;;10.00;9.00;;;26.70;99.90;;;;;;13064479;22;20241;-90
2022/07/22 10:12:18;;;;;;;10.40;9.38;;;27.20;99.90;;;;;;13064620;22;20561;-90
2022/07/22 10:17:22;;;;;;;10.40;9.32;;;26.50;99.90;;;;;;13089840;22;20200;-90
2022/07/22 10:22:39;;;;;;;10.18;9.25;;;26.20;99.90;;;;;;13064362;22;20226;-89
2022/07/22 10:28:00;;;;;;;12.20;10.50;;;25.60;99.90;;;;;;13089612;22;20176;-90
2022/07/22 10:33:08;;;;;;;11.60;9.55;;;26.00;99.90;;;;;;13108454;22;20176;-90
2022/07/22 10:38:14;;;;;;;11.85;10.10;;;26.40;99.90;;;;;;13091488;22;20192;-90
2022/07/22 10:43:28;;;;;;;12.60;10.10;;;26.20;99.90;;;;;;13089380;22;20639;-90
2022/07/22 10:48:37;;;;;;;11.48;10.38;;;26.60;99.90;;;;;;13089951;22;20176;-90
2022/07/22 10:53:42;;;;;;;14.18;11.52;;;26.80;99.90;;;;;;13137649;22;20568;-90
2022/07/22 10:58:53;;;;;;;10.73;9.73;;;26.50;99.90;;;;;;13118517;22;20164;-90
2022/07/22 11:04:06;;;;;;;10.15;9.05;;;26.70;99.90;;;;;;13063792;22;20233;-90
2022/07/22 11:09:11;;;;;;;13.18;10.82;;;26.20;99.90;;;;;;13107497;22;20190;-90
2022/07/22 11:14:14;;;;;;;10.45;9.55;;;26.80;99.90;;;;;;13116876;22;20361;-90
2022/07/22 11:19:28;;;;;;;10.70;9.70;;;26.40;99.90;;;;;;13062907;22;20505;-90
2022/07/22 11:24:32;;;;;;;10.25;9.35;;;25.80;99.90;;;;;;13134213;22;20194;-90
2022/07/22 11:29:39;;;;;;;9.80;8.80;;;26.00;99.90;;;;;;13089388;22;20172;-90
2022/07/22 11:34:51;;;;;;;8.95;8.15;;;26.40;99.90;;;;;;10618228;27;20530;-90
2022/07/22 11:40:03;;;;;;;11.27;8.50;;;26.30;99.90;;;;;;10633420;27;20569;-90
2022/07/22 11:45:06;;;;;;;9.55;8.63;;;26.60;99.90;;;;;;10633669;27;20197;-89
2022/07/22 11:50:09;;;;;;;9.65;8.63;;;27.40;99.90;;;;;;10617532;28;20261;-89
2022/07/22 11:55:16;;;;;;;10.00;9.05;;;27.20;99.90;;;;;;10599304;28;20193;-88
2022/07/22 12:00:18;;;;;;;10.40;8.65;;;27.00;99.90;;;;;;10617034;28;20200;-90
2022/07/22 12:05:21;;;;;;;7.78;7.13;;;27.10;99.90;;;;;;10617184;28;20242;-89
2022/07/22 12:10:39;;;;;;;15.20;8.23;;;27.70;99.90;;;;;;10600790;28;20208;-89
2022/07/22 12:15:42;;;;;;;10.00;9.00;;;27.00;99.90;;;;;;10598173;28;20196;-89
2022/07/22 12:20:49;;;;;;;9.95;8.95;;;27.30;99.90;;;;;;10597865;28;20204;-89
2022/07/22 12:26:00;;;;;;;9.98;8.98;;;27.40;99.90;;;;;;10631860;27;20196;-90
2022/07/22 12:31:03;;;;;;;9.65;8.55;;;27.00;99.90;;;;;;10613884;28;20232;-89
2022/07/22 12:36:07;;;;;;;7.57;6.85;;;26.50;99.90;;;;;;10597355;28;20564;-89
2022/07/22 12:41:27;;;;;;;7.47;6.72;;;26.60;99.90;;;;;;10596586;28;20571;-89
2022/07/22 12:46:30;;;;;;;7.90;7.10;;;26.50;99.90;;;;;;10586801;28;20578;-89
2022/07/22 12:51:32;;;;;;;8.73;7.88;;;26.80;99.90;;;;;;10586796;28;20221;-89
2022/07/22 12:56:35;;;;;;;13.73;8.20;;;26.70;99.90;;;;;;10602016;27;20193;-89
2022/07/22 13:01:38;;;;;;;10.23;9.18;;;27.10;99.90;;;;;;10568527;28;20201;-88
2022/07/22 13:06:41;;;;;;;10.00;8.98;;;26.80;99.90;;;;;;10567469;28;20254;-89
2022/07/22 13:11:44;;;;;;;11.38;7.80;;;26.70;99.90;;;;;;10567596;28;20278;-90
2022/07/22 13:16:48;;;;;;;10.48;8.40;;;27.00;99.90;;;;;;10567889;28;20193;-90
2022/07/22 13:21:51;;;;;;;9.90;7.82;;;27.40;99.90;;;;;;10585542;28;20189;-89
2022/07/22 13:26:53;;;;;;;9.82;8.93;;;27.40;99.90;;;;;;10585418;28;20242;-89
2022/07/22 13:31:55;;;;;;;9.65;8.65;;;27.20;99.90;;;;;;10565734;28;20229;-89
2022/07/22 13:37:18;;;;;;;10.25;8.18;;;27.80;99.90;;;;;;10566559;28;20200;-89
2022/07/22 13:42:20;;;;;;;8.48;7.57;;;27.00;99.90;;;;;;10566561;28;20541;-89
2022/07/22 13:47:23;;;;;;;9.50;8.60;;;27.20;99.90;;;;;;10566238;28;20196;-88
2022/07/22 13:52:26;;;;;;;9.45;8.52;;;27.00;99.90;;;;;;10566418;28;20580;-90
2022/07/22 13:57:28;;;;;;;10.88;8.20;;;26.80;99.90;;;;;;10583298;28;20189;-90
2022/07/22 14:02:31;;;;;;;9.23;7.57;;;27.00;99.90;;;;;;10565577;28;20613;-89
2022/07/22 14:07:33;;;;;;;10.30;9.35;;;27.60;99.90;;;;;;10566613;28;20607;-89
2022/07/22 14:12:36;;;;;;;8.73;7.82;;;26.90;99.90;;;;;;10583316;28;20582;-88
2022/07/22 14:17:38;;;;;;;10.13;9.00;;;27.60;99.90;;;;;;10565739;28;20197;-88
2022/07/22 14:22:41;;;;;;;13.65;8.57;;;27.70;99.90;;;;;;10565006;28;20205;-89
2022/07/22 14:27:44;;;;;;;10.75;9.57;;;27.70;99.90;;;;;;10564869;28;20197;-90
2022/07/22 14:32:46;;;;;;;9.80;8.55;;;27.40;99.90;;;;;;10582556;28;20592;-89
2022/07/22 14:37:50;;;;;;;10.73;8.82;;;27.40;99.90;;;;;;10582794;28;20192;-90
2022/07/22 14:42:52;;;;;;;9.65;8.65;;;27.20;99.90;;;;;;10582513;28;20270;-90
2022/07/22 14:48:14;;;;;;;10.60;8.35;;;27.00;99.90;;;;;;10563953;28;20580;-89
2022/07/22 14:53:17;;;;;;;10.75;9.45;;;27.00;99.90;;;;;;10582703;28;20268;-89
2022/07/22 14:58:19;;;;;;;11.10;8.68;;;26.90;99.90;;;;;;10583660;28;20258;-89
2022/07/22 15:03:22;;;;;;;14.23;9.23;;;27.10;99.90;;;;;;10564415;28;20205;-89
2022/07/22 15:08:24;;;;;;;10.85;9.75;;;26.90;99.90;;;;;;10563700;28;20208;-88
2022/07/22 15:13:28;;;;;;;11.18;8.68;;;26.60;99.90;;;;;;10581573;28;20209;-90
2022/07/22 15:18:33;;;;;;;9.77;8.35;;;26.50;99.90;;;;;;10581549;28;20197;-89
2022/07/22 15:23:36;;;;;;;9.30;8.30;;;26.80;99.90;;;;;;10585456;28;20250;-90
2022/07/22 15:28:38;;;;;;;9.95;8.88;;;26.90;99.90;;;;;;10573751;28;20212;-89
2022/07/22 15:33:42;;;;;;;10.13;8.52;;;26.90;99.90;;;;;;10585569;28;20220;-89
2022/07/22 15:38:44;;;;;;;9.43;8.55;;;26.70;99.90;;;;;;10592582;28;20242;-90
2022/07/22 15:43:47;;;;;;;11.93;8.35;;;26.60;99.90;;;;;;10569134;28;20257;-89
2022/07/22 15:48:49;;;;;;;10.98;9.75;;;26.60;99.90;;;;;;10586820;28;20242;-89
2022/07/22 15:53:52;;;;;;;10.30;9.20;;;26.50;99.90;;;;;;10583015;28;20213;-90
2022/07/22 16:04:32;;;;;;;9.10;8.30;;;26.50;99.90;;;;;;10582714;28;20576;-89
2022/07/22 16:09:34;;;;;;;9.52;8.52;;;26.80;99.90;;;;;;10583341;28;20218;-89
2022/07/22 16:14:37;;;;;;;9.48;8.63;;;27.10;99.90;;;;;;10565139;28;20224;-89
2022/07/22 16:19:39;;;;;;;9.23;8.23;;;26.60;99.90;;;;;;10588358;28;20193;-89
2022/07/22 16:24:41;;;;;;;9.13;8.23;;;26.60;99.90;;;;;;10573184;28;20193;-89
2022/07/22 16:29:44;;;;;;;9.60;8.70;;;26.80;99.90;;;;;;10591452;28;20246;-89
2022/07/22 16:34:46;;;;;;;7.50;6.68;;;26.90;99.90;;;;;;10592823;28;20247;-89
2022/07/22 16:39:53;;;;;;;10.63;8.23;;;26.80;99.90;;;;;;10587524;28;20193;-89
2022/07/22 16:44:58;;;;;;;9.88;7.80;;;26.90;99.90;;;;;;10587163;28;20262;-89
2022/07/22 16:50:00;;;;;;;9.60;8.05;;;26.70;99.90;;;;;;10569047;28;20253;-90
2022/07/22 16:55:03;;;;;;;9.65;8.32;;;26.60;99.90;;;;;;10586995;28;20562;-89
2022/07/22 17:00:07;;;;;;;8.80;7.30;;;26.60;99.90;;;;;;10586588;28;20201;-89
2022/07/22 17:05:10;;;;;;;8.80;7.35;;;26.60;99.90;;;;;;10586424;28;20193;-89
2022/07/22 17:10:13;;;;;;;10.43;8.13;;;26.60;99.90;;;;;;10586250;28;20222;-89
2022/07/22 17:15:15;;;;;;;8.30;7.50;;;26.50;99.90;;;;;;10567347;28;20225;-89
2022/07/22 17:20:18;;;;;;;6.65;6.05;;;26.20;99.90;;;;;;10586434;28;20192;-89
2022/07/22 17:25:20;;;;;;;8.60;7.80;;;26.20;99.90;;;;;;10587238;28;20193;-90
2022/07/22 17:30:23;;;;;;;11.50;7.32;;;26.10;99.90;;;;;;10586866;28;20591;-90
2022/07/22 17:35:25;;;;;;;7.57;6.85;;;25.80;99.90;;;;;;10568519;28;20273;-90
2022/07/22 17:40:32;;;;;;;12.52;7.55;;;25.80;99.90;;;;;;10603275;27;20227;-89
2022/07/22 17:45:34;;;;;;;7.97;7.03;;;25.70;99.90;;;;;;10587670;28;20205;-91
2022/07/22 17:50:38;;;;;;;11.38;5.30;;;25.60;99.90;;;;;;10585716;28;20196;-90
2022/07/22 17:55:40;;;;;;;14.05;4.93;;;25.50;99.90;;;;;;10566409;28;20242;-90
2022/07/22 18:00:43;;;;;;;7.72;5.05;;;25.40;99.90;;;;;;10584201;28;20235;-89
2022/07/22 18:05:47;;;;;;;21.15;6.78;;;25.30;99.90;;;;;;10584586;28;20193;-90
2022/07/22 18:10:49;;;;;;;7.38;6.32;;;25.10;99.90;;;;;;10599411;27;20258;-89
2022/07/22 18:15:52;;;;;;;7.70;6.95;;;25.00;99.90;;;;;;10583675;28;20242;-89
2022/07/22 18:20:55;;;;;;;5.00;4.60;;;24.80;99.90;;;;;;10567643;28;20730;-89
2022/07/22 18:25:59;;;;;;;15.13;4.28;;;24.70;99.90;;;;;;10569493;28;20340;-89
2022/07/22 18:31:01;;;;;;;7.28;5.53;;;24.50;99.90;;;;;;10568244;28;20598;-90
2022/07/22 18:36:05;;;;;;;8.48;4.90;;;24.40;99.90;;;;;;10593550;28;20217;-89
2022/07/22 18:41:08;;;;;;;12.65;5.68;;;24.20;99.90;;;;;;10585626;28;20190;-90
2022/07/22 18:46:11;;;;;;;12.15;5.05;;;24.00;99.90;;;;;;10586719;28;20231;-89
2022/07/22 18:51:15;;;;;;;7.50;6.82;;;23.80;99.90;;;;;;10567490;28;20246;-89
2022/07/22 18:56:18;;;;;;;9.05;8.18;;;23.70;99.90;;;;;;10585608;28;20208;-89
2022/07/22 19:01:20;;;;;;;9.60;8.70;;;23.80;99.90;;;;;;10567669;28;20661;-89
2022/07/22 19:06:23;;;;;;;9.90;8.13;;;23.80;99.90;;;;;;10568664;28;20189;-89
2022/07/22 19:11:26;;;;;;;8.70;7.80;;;23.80;99.90;;;;;;10587079;28;20197;-89
2022/07/22 19:16:29;;;;;;;8.57;7.78;;;23.70;99.90;;;;;;10569364;28;20244;-89
2022/07/22 19:21:32;;;;;;;9.20;8.32;;;23.70;99.90;;;;;;10584514;28;20246;-89
2022/07/22 19:26:34;;;;;;;8.82;7.97;;;23.70;99.90;;;;;;10583850;28;20197;-89
2022/07/22 19:31:37;;;;;;;8.63;7.82;;;23.60;99.90;;;;;;10566997;28;20270;-89
2022/07/22 19:36:39;;;;;;;14.00;6.65;;;23.60;99.90;;;;;;10585785;28;20197;-89
2022/07/22 19:41:42;;;;;;;8.73;7.82;;;23.50;99.90;;;;;;10586081;28;20223;-89
2022/07/22 19:46:47;;;;;;;8.88;7.70;;;23.40;99.90;;;;;;10585819;28;20290;-89
2022/07/22 19:51:49;;;;;;;8.55;7.75;;;23.50;99.90;;;;;;10570289;28;20197;-90
2022/07/22 19:56:52;;;;;;;7.70;6.90;;;23.40;99.90;;;;;;10575328;28;20605;-89
2022/07/22 20:01:54;;;;;;;11.32;7.57;;;23.50;99.90;;;;;;10590505;28;20262;-89
2022/07/22 20:06:57;;;;;;;8.52;7.72;;;23.40;99.90;;;;;;10570818;28;20317;-89
2022/07/22 20:11:59;;;;;;;8.68;7.85;;;23.40;99.90;;;;;;10589039;28;20596;-89
2022/07/22 20:17:02;;;;;;;8.13;7.43;;;23.40;99.90;;;;;;10570369;28;20249;-89
2022/07/22 20:22:08;;;;;;;8.05;7.13;;;23.40;99.90;;;;;;10569495;28;20266;-89
2022/07/22 20:27:11;;;;;;;8.10;7.40;;;23.40;99.90;;;;;;10588582;28;20219;-89
2022/07/22 20:32:13;;;;;;;11.30;8.73;;;23.40;99.90;;;;;;10570017;28;20243;-89
2022/07/22 20:37:15;;;;;;;7.43;6.80;;;23.30;99.90;;;;;;10570105;28;20249;-90
2022/07/22 20:42:20;;;;;;;9.00;8.10;;;23.30;99.90;;;;;;10587625;28;20604;-89
2022/07/22 20:47:32;;;;;;;7.65;6.95;;;23.30;99.90;;;;;;10587735;28;20196;-89
2022/07/22 20:52:35;;;;;;;8.40;7.38;;;23.30;99.90;;;;;;10587192;28;20250;-89
2022/07/22 20:57:37;;;;;;;8.32;7.55;;;23.30;99.90;;;;;;10587134;28;20197;-89
2022/07/22 21:02:39;;;;;;;7.60;6.82;;;23.30;99.90;;;;;;10568370;28;20201;-89
2022/07/22 21:07:42;;;;;;;7.90;7.18;;;23.30;99.90;;;;;;10568661;28;20578;-88
2022/07/22 21:12:45;;;;;;;8.30;7.60;;;23.30;99.90;;;;;;10568459;28;20285;-89
2022/07/22 21:17:47;;;;;;;8.55;7.68;;;23.30;99.90;;;;;;10586606;28;20193;-89
2022/07/22 21:22:50;;;;;;;7.95;7.15;;;23.30;99.90;;;;;;10586306;28;20197;-88
2022/07/22 21:27:53;;;;;;;8.60;7.80;;;23.30;99.90;;;;;;10568420;28;20196;-89
2022/07/22 21:32:58;;;;;;;8.48;7.68;;;23.20;99.90;;;;;;10567797;28;20224;-89
2022/07/22 21:38:01;;;;;;;8.85;8.00;;;23.20;99.90;;;;;;10567451;28;20200;-89
2022/07/22 21:43:03;;;;;;;7.90;7.18;;;23.20;99.90;;;;;;10585873;28;20243;-89
2022/07/22 21:48:06;;;;;;;7.50;6.80;;;23.20;99.90;;;;;;10585466;28;20197;-89
2022/07/22 21:53:08;;;;;;;8.38;7.65;;;23.20;99.90;;;;;;10585319;28;20213;-90
2022/07/22 21:58:11;;;;;;;8.63;7.82;;;23.10;99.90;;;;;;10585231;28;20550;-89
2022/07/22 22:03:13;;;;;;;7.60;6.90;;;23.10;99.90;;;;;;10567169;28;20201;-89
2022/07/22 22:08:16;;;;;;;7.75;7.05;;;23.10;99.90;;;;;;10584000;28;20250;-89
2022/07/22 22:13:18;;;;;;;8.02;7.32;;;23.10;99.90;;;;;;10566254;28;20216;-90
2022/07/22 22:18:21;;;;;;;8.20;7.38;;;23.10;99.90;;;;;;10583606;28;20649;-89
2022/07/22 22:23:23;;;;;;;7.38;6.78;;;23.10;99.90;;;;;;10566184;28;20257;-90
2022/07/22 22:28:26;;;;;;;7.80;7.10;;;23.10;99.90;;;;;;10583747;28;20625;-89
2022/07/22 22:33:28;;;;;;;7.38;6.68;;;23.10;99.90;;;;;;10565997;28;20270;-89
2022/07/22 22:38:31;;;;;;;7.47;6.78;;;23.00;99.90;;;;;;10583677;28;20242;-89
2022/07/22 22:43:33;;;;;;;7.32;6.72;;;23.00;99.90;;;;;;10583355;28;20197;-89
2022/07/22 22:48:36;;;;;;;7.43;6.72;;;23.00;99.90;;;;;;10583244;28;20189;-89
2022/07/22 22:53:38;;;;;;;8.32;7.57;;;23.00;99.90;;;;;;10583049;28;20226;-89
2022/07/22 22:58:41;;;;;;;7.75;7.00;;;23.00;99.90;;;;;;10582694;28;20204;-89
2022/07/22 23:03:43;;;;;;;7.93;7.22;;;23.00;99.90;;;;;;10564407;28;20538;-88
2022/07/22 23:08:46;;;;;;;7.20;6.50;;;23.00;99.90;;;;;;10582493;28;20196;-89
2022/07/22 23:13:48;;;;;;;7.93;7.22;;;23.00;99.90;;;;;;10582001;28;20213;-89
2022/07/22 23:18:51;;;;;;;7.47;6.82;;;23.00;99.90;;;;;;10563970;28;20227;-89
2022/07/22 23:23:53;;;;;;;7.13;6.53;;;22.90;99.90;;;;;;10566318;28;20226;-89
2022/07/22 23:28:56;;;;;;;7.40;6.70;;;23.00;99.90;;;;;;10567604;28;20249;-89
2022/07/22 23:34:00;;;;;;;7.35;6.65;;;22.90;99.90;;;;;;10581073;28;20229;-88
2022/07/22 23:39:02;;;;;;;7.85;7.15;;;22.90;99.90;;;;;;10581162;28;20185;-89
2022/07/22 23:44:05;;;;;;;7.70;7.00;;;22.90;99.90;;;;;;10563183;28;20197;-89
2022/07/22 23:49:08;;;;;;;6.35;5.82;;;22.90;99.90;;;;;;10581625;28;20189;-88
2022/07/22 23:54:10;;;;;;;6.72;6.13;;;22.90;99.90;;;;;;10581102;28;20277;-88
2022/07/22 23:59:13;;;;;;;7.68;6.97;;;22.90;99.90;;;;;;10580920;28;20193;-89
